Strona główna
METAR-TAF:

METAR-TAF

Lotnisko :

Area_Regional_Airport

South Haven, Michigan, Stany Zjednoczone

Szerokość geograficzna: 42-21-03N, Długość geograficzna: 086-15-22W, wysokość: 203 m

Aktualna obserwacja pogody

Raport powstał 10 minut temu, godzina 19:55 UTC
Wiatr 10 kt od północ w porywach dochodzący do 19 kt
Temperatura -1°C
Wilgotność 64%
Ciśnienie 1022 hPa
Widzialność: 16.1 km
Rozproszone chmury na wysokości 3000 ft
Zachmurzenie całkowite na wysokości 3700 ft

METAR: KLWA 191955Z AUTO 35010G19KT 10SM SCT030 OVC037 M01/M07 A3018 RMK AO2 T10131075

czas: 15:05 (20:05 UTC)


TAF: brakujący

Obserwacja i prognoza pogody dla ponad 4000 lotnisk (raport METAR i TAF).

Dostępne stacje oznaczono żółtymi i czerwonymi punktami na mapie.

Najedź kursorem aby zobaczyć nazwę stacji.

Kliknij aby zobaczyć obserwacje i prognozy pogody.

Aby zmienić mapę: kliknij na zielony przycisk z czarnym krzyżykiem, aby powiększyć; na zielony przycisk z myślnikiem, aby pomniejszyć; na zielone strzałki, aby przejść do map sąsiednich.


METAR-TAF: